sensor_id;sensor_type;location;lat;lon;timestamp;pressure;altitude;pressure_sealevel;temperature;humidity
30421;BME280;17218;54.070;10.012;2022-12-18T00:01:15;102640.00;;;-5.86;100.00
30421;BME280;17218;54.070;10.012;2022-12-18T00:03:42;102644.31;;;-5.85;100.00
30421;BME280;17218;54.070;10.012;2022-12-18T00:06:09;102650.09;;;-5.86;100.00
30421;BME280;17218;54.070;10.012;2022-12-18T00:08:35;102649.09;;;-5.88;100.00
30421;BME280;17218;54.070;10.012;2022-12-18T00:11:03;102646.25;;;-5.91;100.00
30421;BME280;17218;54.070;10.012;2022-12-18T00:13:31;102655.00;;;-5.88;100.00
30421;BME280;17218;54.070;10.012;2022-12-18T00:16:01;102659.31;;;-5.87;100.00
30421;BME280;17218;54.070;10.012;2022-12-18T00:18:28;102659.72;;;-5.82;100.00
30421;BME280;17218;54.070;10.012;2022-12-18T00:20:58;102661.97;;;-5.85;100.00
30421;BME280;17218;54.070;10.012;2022-12-18T00:23:25;102668.78;;;-5.84;100.00
30421;BME280;17218;54.070;10.012;2022-12-18T00:25:52;102671.81;;;-5.88;100.00
30421;BME280;17218;54.070;10.012;2022-12-18T00:28:18;102682.63;;;-5.89;100.00
30421;BME280;17218;54.070;10.012;2022-12-18T00:30:46;102680.25;;;-5.88;100.00
30421;BME280;17218;54.070;10.012;2022-12-18T00:33:16;102673.44;;;-5.89;100.00
30421;BME280;17218;54.070;10.012;2022-12-18T00:35:43;102661.84;;;-5.87;100.00
30421;BME280;17218;54.070;10.012;2022-12-18T00:38:09;102653.66;;;-5.84;100.00
30421;BME280;17218;54.070;10.012;2022-12-18T00:40:36;102651.00;;;-5.86;100.00
30421;BME280;17218;54.070;10.012;2022-12-18T00:43:02;102651.44;;;-5.90;100.00
30421;BME280;17218;54.070;10.012;2022-12-18T00:45:30;102654.72;;;-5.91;100.00
30421;BME280;17218;54.070;10.012;2022-12-18T00:47:58;102650.91;;;-5.96;100.00
30421;BME280;17218;54.070;10.012;2022-12-18T00:50:25;102649.28;;;-6.04;100.00
30421;BME280;17218;54.070;10.012;2022-12-18T00:52:51;102648.31;;;-6.06;100.00
30421;BME280;17218;54.070;10.012;2022-12-18T00:55:18;102651.59;;;-6.07;100.00
30421;BME280;17218;54.070;10.012;2022-12-18T00:57:45;102651.38;;;-6.00;100.00
30421;BME280;17218;54.070;10.012;2022-12-18T01:00:13;102648.72;;;-6.02;100.00
30421;BME280;17218;54.070;10.012;2022-12-18T01:02:40;102648.72;;;-6.02;100.00
30421;BME280;17218;54.070;10.012;2022-12-18T01:05:10;102659.28;;;-6.06;100.00
30421;BME280;17218;54.070;10.012;2022-12-18T01:07:37;102645.78;;;-6.06;100.00
30421;BME280;17218;54.070;10.012;2022-12-18T01:10:05;102663.44;;;-6.06;100.00
30421;BME280;17218;54.070;10.012;2022-12-18T01:12:33;102656.63;;;-6.07;100.00
30421;BME280;17218;54.070;10.012;2022-12-18T01:15:00;102648.03;;;-6.09;100.00
30421;BME280;17218;54.070;10.012;2022-12-18T01:17:26;102658.41;;;-6.06;100.00
30421;BME280;17218;54.070;10.012;2022-12-18T01:19:53;102668.91;;;-6.02;100.00
30421;BME280;17218;54.070;10.012;2022-12-18T01:22:21;102665.47;;;-6.02;100.00
30421;BME280;17218;54.070;10.012;2022-12-18T01:24:47;102661.06;;;-6.05;100.00
30421;BME280;17218;54.070;10.012;2022-12-18T01:27:14;102663.56;;;-6.05;100.00
30421;BME280;17218;54.070;10.012;2022-12-18T01:29:41;102675.72;;;-6.01;100.00
30421;BME280;17218;54.070;10.012;2022-12-18T01:32:08;102690.97;;;-5.90;100.00
30421;BME280;17218;54.070;10.012;2022-12-18T01:34:35;102682.78;;;-5.88;100.00
30421;BME280;17218;54.070;10.012;2022-12-18T01:37:02;102692.13;;;-5.87;100.00
30421;BME280;17218;54.070;10.012;2022-12-18T01:39:30;102685.44;;;-5.86;100.00
30421;BME280;17218;54.070;10.012;2022-12-18T01:41:57;102703.09;;;-5.86;100.00
30421;BME280;17218;54.070;10.012;2022-12-18T01:44:54;102695.00;;;-5.92;100.00
30421;BME280;17218;54.070;10.012;2022-12-18T01:47:24;102697.25;;;-5.95;100.00
30421;BME280;17218;54.070;10.012;2022-12-18T01:49:53;102694.63;;;-6.06;100.00
30421;BME280;17218;54.070;10.012;2022-12-18T01:52:21;102705.03;;;-6.12;100.00
30421;BME280;17218;54.070;10.012;2022-12-18T01:54:50;102696.44;;;-6.14;100.00
30421;BME280;17218;54.070;10.012;2022-12-18T01:57:18;102700.94;;;-6.20;100.00
30421;BME280;17218;54.070;10.012;2022-12-18T01:59:47;102704.94;;;-6.22;100.00
30421;BME280;17218;54.070;10.012;2022-12-18T02:02:16;102716.34;;;-6.17;100.00
30421;BME280;17218;54.070;10.012;2022-12-18T02:04:43;102710.09;;;-6.12;100.00
30421;BME280;17218;54.070;10.012;2022-12-18T02:07:14;102711.75;;;-6.21;100.00
30421;BME280;17218;54.070;10.012;2022-12-18T02:09:47;102713.13;;;-6.33;100.00
30421;BME280;17218;54.070;10.012;2022-12-18T02:12:20;102709.56;;;-6.36;100.00
30421;BME280;17218;54.070;10.012;2022-12-18T02:14:55;102729.00;;;-6.43;100.00
30421;BME280;17218;54.070;10.012;2022-12-18T02:17:30;102712.56;;;-6.40;100.00
30421;BME280;17218;54.070;10.012;2022-12-18T02:20:06;102720.13;;;-6.49;100.00
30421;BME280;17218;54.070;10.012;2022-12-18T02:22:41;102715.72;;;-6.51;100.00
30421;BME280;17218;54.070;10.012;2022-12-18T02:25:20;102716.28;;;-6.54;100.00
30421;BME280;17218;54.070;10.012;2022-12-18T02:27:50;102731.00;;;-6.59;100.00
30421;BME280;17218;54.070;10.012;2022-12-18T02:30:19;102742.41;;;-6.53;100.00
30421;BME280;17218;54.070;10.012;2022-12-18T02:32:48;102729.94;;;-6.52;100.00
30421;BME280;17218;54.070;10.012;2022-12-18T02:35:19;102718.22;;;-6.51;100.00
30421;BME280;17218;54.070;10.012;2022-12-18T02:37:47;102723.28;;;-6.51;100.00
30421;BME280;17218;54.070;10.012;2022-12-18T02:40:15;102715.72;;;-6.51;100.00
30421;BME280;17218;54.070;10.012;2022-12-18T02:42:43;102722.38;;;-6.52;100.00
30421;BME280;17218;54.070;10.012;2022-12-18T02:45:11;102724.91;;;-6.52;100.00
30421;BME280;17218;54.070;10.012;2022-12-18T02:47:40;102735.13;;;-6.50;100.00
30421;BME280;17218;54.070;10.012;2022-12-18T02:50:13;102731.28;;;-6.55;100.00
30421;BME280;17218;54.070;10.012;2022-12-18T02:52:53;102736.31;;;-6.55;100.00
30421;BME280;17218;54.070;10.012;2022-12-18T02:55:31;102716.44;;;-6.52;100.00
30421;BME280;17218;54.070;10.012;2022-12-18T02:58:04;102722.09;;;-6.55;100.00
30421;BME280;17218;54.070;10.012;2022-12-18T03:00:39;102726.25;;;-6.55;100.00
30421;BME280;17218;54.070;10.012;2022-12-18T03:03:12;102735.28;;;-6.57;100.00
30421;BME280;17218;54.070;10.012;2022-12-18T03:05:43;102734.69;;;-6.55;100.00
30421;BME280;17218;54.070;10.012;2022-12-18T03:08:16;102737.22;;;-6.55;100.00
30421;BME280;17218;54.070;10.012;2022-12-18T03:10:49;102732.91;;;-6.56;100.00
30421;BME280;17218;54.070;10.012;2022-12-18T03:13:21;102739.88;;;-6.53;100.00
30421;BME280;17218;54.070;10.012;2022-12-18T03:15:55;102729.50;;;-6.56;100.00
30421;BME280;17218;54.070;10.012;2022-12-18T03:18:25;102722.25;;;-6.62;100.00
30421;BME280;17218;54.070;10.012;2022-12-18T03:20:57;102724.59;;;-6.64;100.00
30421;BME280;17218;54.070;10.012;2022-12-18T03:23:30;102717.94;;;-6.63;100.00
30421;BME280;17218;54.070;10.012;2022-12-18T03:26:02;102715.56;;;-6.62;100.00
30421;BME280;17218;54.070;10.012;2022-12-18T03:28:32;102727.28;;;-6.62;100.00
30421;BME280;17218;54.070;10.012;2022-12-18T03:31:04;102721.94;;;-6.65;100.00
30421;BME280;17218;54.070;10.012;2022-12-18T03:33:34;102716.47;;;-6.70;100.00
30421;BME280;17218;54.070;10.012;2022-12-18T03:36:03;102719.00;;;-6.70;100.00
30421;BME280;17218;54.070;10.012;2022-12-18T03:38:29;102723.13;;;-6.71;100.00
30421;BME280;17218;54.070;10.012;2022-12-18T03:40:59;102736.63;;;-6.70;100.00
30421;BME280;17218;54.070;10.012;2022-12-18T03:43:36;102732.03;;;-6.65;100.00
30421;BME280;17218;54.070;10.012;2022-12-18T03:46:09;102735.31;;;-6.66;100.00
30421;BME280;17218;54.070;10.012;2022-12-18T03:48:42;102733.22;;;-6.71;100.00
30421;BME280;17218;54.070;10.012;2022-12-18T03:51:14;102728.03;;;-6.72;100.00
30421;BME280;17218;54.070;10.012;2022-12-18T03:53:48;102725.38;;;-6.74;100.00
30421;BME280;17218;54.070;10.012;2022-12-18T03:56:18;102714.53;;;-6.73;100.00
30421;BME280;17218;54.070;10.012;2022-12-18T03:58:48;102715.72;;;-6.69;100.00
30421;BME280;17218;54.070;10.012;2022-12-18T04:01:20;102715.41;;;-6.63;100.00
30421;BME280;17218;54.070;10.012;2022-12-18T04:03:49;102710.09;;;-6.66;100.00
30421;BME280;17218;54.070;10.012;2022-12-18T04:06:17;102716.91;;;-6.65;100.00
30421;BME280;17218;54.070;10.012;2022-12-18T04:08:45;102706.22;;;-6.63;100.00
30421;BME280;17218;54.070;10.012;2022-12-18T04:11:12;102713.03;;;-6.62;100.00
30421;BME280;17218;54.070;10.012;2022-12-18T04:13:39;102716.59;;;-6.60;100.00
30421;BME280;17218;54.070;10.012;2022-12-18T04:16:06;102710.38;;;-6.63;100.00
30421;BME280;17218;54.070;10.012;2022-12-18T04:18:34;102704.28;;;-6.65;100.00
30421;BME280;17218;54.070;10.012;2022-12-18T04:21:01;102720.47;;;-6.63;100.00
30421;BME280;17218;54.070;10.012;2022-12-18T04:23:27;102714.84;;;-6.69;100.00
30421;BME280;17218;54.070;10.012;2022-12-18T04:25:54;102706.09;;;-6.73;100.00
30421;BME280;17218;54.070;10.012;2022-12-18T04:28:21;102713.66;;;-6.73;100.00
30421;BME280;17218;54.070;10.012;2022-12-18T04:30:48;102707.72;;;-6.74;100.00
30421;BME280;17218;54.070;10.012;2022-12-18T04:33:17;102725.97;;;-6.76;100.00
30421;BME280;17218;54.070;10.012;2022-12-18T04:35:45;102721.06;;;-6.75;100.00
30421;BME280;17218;54.070;10.012;2022-12-18T04:38:12;102722.25;;;-6.80;100.00
30421;BME280;17218;54.070;10.012;2022-12-18T04:40:39;102726.56;;;-6.79;100.00
30421;BME280;17218;54.070;10.012;2022-12-18T04:43:06;102724.06;;;-6.79;100.00
30421;BME280;17218;54.070;10.012;2022-12-18T04:45:32;102733.09;;;-6.81;100.00
30421;BME280;17218;54.070;10.012;2022-12-18T04:48:00;102730.56;;;-6.81;100.00
30421;BME280;17218;54.070;10.012;2022-12-18T04:50:27;102738.44;;;-6.87;100.00
30421;BME280;17218;54.070;10.012;2022-12-18T04:52:55;102734.44;;;-6.85;100.00
30421;BME280;17218;54.070;10.012;2022-12-18T04:55:24;102731.00;;;-6.76;100.00
30421;BME280;17218;54.070;10.012;2022-12-18T04:57:51;102735.75;;;-6.79;100.00
30421;BME280;17218;54.070;10.012;2022-12-18T05:00:18;102729.06;;;-6.88;100.00
30421;BME280;17218;54.070;10.012;2022-12-18T05:02:45;102735.28;;;-6.84;100.00
30421;BME280;17218;54.070;10.012;2022-12-18T05:05:11;102746.41;;;-6.82;100.00
30421;BME280;17218;54.070;10.012;2022-12-18T05:07:38;102752.50;;;-6.80;100.00
30421;BME280;17218;54.070;10.012;2022-12-18T05:10:09;102749.69;;;-6.74;100.00
30421;BME280;17218;54.070;10.012;2022-12-18T05:12:36;102765.84;;;-6.72;100.00
30421;BME280;17218;54.070;10.012;2022-12-18T05:15:24;102764.06;;;-6.64;100.00
30421;BME280;17218;54.070;10.012;2022-12-18T05:17:50;102761.25;;;-6.67;100.00
30421;BME280;17218;54.070;10.012;2022-12-18T05:20:17;102764.66;;;-6.67;100.00
30421;BME280;17218;54.070;10.012;2022-12-18T05:22:44;102757.84;;;-6.68;100.00
30421;BME280;17218;54.070;10.012;2022-12-18T05:25:12;102753.53;;;-6.69;100.00
30421;BME280;17218;54.070;10.012;2022-12-18T05:27:39;102754.44;;;-6.68;100.00
30421;BME280;17218;54.070;10.012;2022-12-18T05:30:06;102764.22;;;-6.72;100.00
30421;BME280;17218;54.070;10.012;2022-12-18T05:32:33;102761.25;;;-6.67;100.00
30421;BME280;17218;54.070;10.012;2022-12-18T05:35:00;102752.34;;;-6.73;100.00
30421;BME280;17218;54.070;10.012;2022-12-18T05:37:26;102751.63;;;-6.72;100.00
30421;BME280;17218;54.070;10.012;2022-12-18T05:39:53;102749.25;;;-6.70;100.00
30421;BME280;17218;54.070;10.012;2022-12-18T05:42:21;102758.56;;;-6.69;100.00
30421;BME280;17218;54.070;10.012;2022-12-18T05:44:47;102750.72;;;-6.72;100.00
30421;BME280;17218;54.070;10.012;2022-12-18T05:47:14;102755.00;;;-6.71;100.00
30421;BME280;17218;54.070;10.012;2022-12-18T05:49:41;102766.59;;;-6.73;100.00
30421;BME280;17218;54.070;10.012;2022-12-18T05:52:07;102775.94;;;-6.72;100.00
30421;BME280;17218;54.070;10.012;2022-12-18T05:54:34;102775.50;;;-6.77;100.00
30421;BME280;17218;54.070;10.012;2022-12-18T05:57:01;102770.28;;;-6.78;100.00
30421;BME280;17218;54.070;10.012;2022-12-18T05:59:29;102766.59;;;-6.73;100.00
30421;BME280;17218;54.070;10.012;2022-12-18T06:01:55;102763.06;;;-6.75;100.00
30421;BME280;17218;54.070;10.012;2022-12-18T06:04:22;102772.22;;;-6.76;100.00
30421;BME280;17218;54.070;10.012;2022-12-18T06:06:48;102773.84;;;-6.85;100.00
30421;BME280;17218;54.070;10.012;2022-12-18T06:09:15;102779.03;;;-6.84;100.00
30421;BME280;17218;54.070;10.012;2022-12-18T06:11:42;102773.09;;;-6.84;100.00
30421;BME280;17218;54.070;10.012;2022-12-18T06:14:09;102773.09;;;-6.93;100.00
30421;BME280;17218;54.070;10.012;2022-12-18T06:16:37;102774.00;;;-6.92;100.00
30421;BME280;17218;54.070;10.012;2022-12-18T06:19:05;102786.03;;;-6.90;100.00
30421;BME280;17218;54.070;10.012;2022-12-18T06:21:32;102785.41;;;-6.96;100.00
30421;BME280;17218;54.070;10.012;2022-12-18T06:23:59;102780.53;;;-6.95;100.00
30421;BME280;17218;54.070;10.012;2022-12-18T06:26:26;102780.53;;;-6.95;100.00
30421;BME280;17218;54.070;10.012;2022-12-18T06:28:52;102784.38;;;-6.98;100.00
30421;BME280;17218;54.070;10.012;2022-12-18T06:31:19;102780.38;;;-7.05;100.00
30421;BME280;17218;54.070;10.012;2022-12-18T06:33:47;102783.19;;;-7.02;100.00
30421;BME280;17218;54.070;10.012;2022-12-18T06:36:13;102781.84;;;-7.07;100.00
30421;BME280;17218;54.070;10.012;2022-12-18T06:38:42;102783.63;;;-7.06;100.00
30421;BME280;17218;54.070;10.012;2022-12-18T06:41:11;102775.34;;;-7.05;100.00
30421;BME280;17218;54.070;10.012;2022-12-18T06:43:38;102787.03;;;-7.14;100.00
30421;BME280;17218;54.070;10.012;2022-12-18T06:46:05;102791.03;;;-7.16;100.00
30421;BME280;17218;54.070;10.012;2022-12-18T06:48:32;102800.53;;;-7.14;100.00
30421;BME280;17218;54.070;10.012;2022-12-18T06:51:00;102800.53;;;-7.14;100.00
30421;BME280;17218;54.070;10.012;2022-12-18T06:53:27;102789.84;;;-7.11;100.00
30421;BME280;17218;54.070;10.012;2022-12-18T06:55:59;102803.03;;;-7.14;100.00
30421;BME280;17218;54.070;10.012;2022-12-18T06:58:26;102797.38;;;-7.20;100.00
30421;BME280;17218;54.070;10.012;2022-12-18T07:00:53;102797.97;;;-7.23;100.00
30421;BME280;17218;54.070;10.012;2022-12-18T07:03:20;102795.44;;;-7.32;100.00
30421;BME280;17218;54.070;10.012;2022-12-18T07:05:46;102800.19;;;-7.26;100.00
30421;BME280;17218;54.070;10.012;2022-12-18T07:08:14;102799.63;;;-7.23;100.00
30421;BME280;17218;54.070;10.012;2022-12-18T07:10:41;102807.31;;;-7.31;100.00
30421;BME280;17218;54.070;10.012;2022-12-18T07:13:08;102799.47;;;-7.25;100.00
30421;BME280;17218;54.070;10.012;2022-12-18T07:15:35;102802.13;;;-7.23;100.00
30421;BME280;17218;54.070;10.012;2022-12-18T07:18:02;102810.84;;;-7.28;100.00
30421;BME280;17218;54.070;10.012;2022-12-18T07:20:28;102818.53;;;-7.36;100.00
30421;BME280;17218;54.070;10.012;2022-12-18T07:22:55;102836.16;;;-7.36;100.00
30421;BME280;17218;54.070;10.012;2022-12-18T07:25:23;102836.63;;;-7.31;100.00
30421;BME280;17218;54.070;10.012;2022-12-18T07:27:49;102844.91;;;-7.32;100.00
30421;BME280;17218;54.070;10.012;2022-12-18T07:30:16;102845.94;;;-7.30;100.00
30421;BME280;17218;54.070;10.012;2022-12-18T07:32:43;102838.25;;;-7.32;100.00
30421;BME280;17218;54.070;10.012;2022-12-18T07:35:12;102841.03;;;-7.37;100.00
30421;BME280;17218;54.070;10.012;2022-12-18T07:37:38;102838.22;;;-7.40;100.00
30421;BME280;17218;54.070;10.012;2022-12-18T07:40:06;102850.53;;;-7.35;100.00
30421;BME280;17218;54.070;10.012;2022-12-18T07:42:34;102851.72;;;-7.40;100.00
30421;BME280;17218;54.070;10.012;2022-12-18T07:45:02;102867.44;;;-7.34;100.00
30421;BME280;17218;54.070;10.012;2022-12-18T07:47:34;102869.94;;;-7.34;100.00
30421;BME280;17218;54.070;10.012;2022-12-18T07:50:01;102861.66;;;-7.33;100.00
30421;BME280;17218;54.070;10.012;2022-12-18T07:52:28;102864.91;;;-7.34;100.00
30421;BME280;17218;54.070;10.012;2022-12-18T07:54:55;102873.50;;;-7.32;100.00
30421;BME280;17218;54.070;10.012;2022-12-18T07:57:21;102873.66;;;-7.30;100.00
30421;BME280;17218;54.070;10.012;2022-12-18T07:59:49;102883.31;;;-7.26;100.00
30421;BME280;17218;54.070;10.012;2022-12-18T08:02:16;102873.53;;;-7.23;100.00
30421;BME280;17218;54.070;10.012;2022-12-18T08:04:42;102865.41;;;-7.20;100.00
30421;BME280;17218;54.070;10.012;2022-12-18T08:07:09;102880.97;;;-7.15;100.00
30421;BME280;17218;54.070;10.012;2022-12-18T08:09:35;102880.09;;;-7.16;100.00
30421;BME280;17218;54.070;10.012;2022-12-18T08:12:02;102874.78;;;-7.10;100.00
30421;BME280;17218;54.070;10.012;2022-12-18T08:14:29;102874.50;;;-7.04;100.00
30421;BME280;17218;54.070;10.012;2022-12-18T08:16:57;102870.81;;;-6.99;100.00
30421;BME280;17218;54.070;10.012;2022-12-18T08:19:24;102861.31;;;-6.93;100.00
30421;BME280;17218;54.070;10.012;2022-12-18T08:21:50;102855.09;;;-6.88;100.00
30421;BME280;17218;54.070;10.012;2022-12-18T08:24:17;102859.84;;;-6.82;100.00
30421;BME280;17218;54.070;10.012;2022-12-18T08:26:43;102856.63;;;-6.81;100.00
30421;BME280;17218;54.070;10.012;2022-12-18T08:29:10;102844.72;;;-6.82;100.00
30421;BME280;17218;54.070;10.012;2022-12-18T08:31:37;102842.38;;;-6.80;100.00
30421;BME280;17218;54.070;10.012;2022-12-18T08:34:05;102841.34;;;-6.83;100.00
30421;BME280;17218;54.070;10.012;2022-12-18T08:36:31;102847.56;;;-6.79;100.00
30421;BME280;17218;54.070;10.012;2022-12-18T08:38:58;102845.19;;;-6.77;100.00
30421;BME280;17218;54.070;10.012;2022-12-18T08:41:25;102849.94;;;-6.72;100.00
30421;BME280;17218;54.070;10.012;2022-12-18T08:43:51;102842.69;;;-6.68;100.00
30421;BME280;17218;54.070;10.012;2022-12-18T08:46:37;102836.59;;;-6.62;100.00
30421;BME280;17218;54.070;10.012;2022-12-18T08:49:05;102845.66;;;-6.55;100.00
30421;BME280;17218;54.070;10.012;2022-12-18T08:51:32;102863.59;;;-6.52;100.00
30421;BME280;17218;54.070;10.012;2022-12-18T08:53:59;102841.50;;;-6.45;100.00
30421;BME280;17218;54.070;10.012;2022-12-18T08:56:26;102851.31;;;-6.40;100.00
30421;BME280;17218;54.070;10.012;2022-12-18T08:58:54;102856.19;;;-6.32;100.00
30421;BME280;17218;54.070;10.012;2022-12-18T09:01:21;102854.09;;;-6.28;100.00
30421;BME280;17218;54.070;10.012;2022-12-18T09:03:48;102850.09;;;-6.17;100.00
30421;BME280;17218;54.070;10.012;2022-12-18T09:06:17;102838.50;;;-6.15;100.00
30421;BME280;17218;54.070;10.012;2022-12-18T09:08:44;102855.53;;;-6.03;100.00
30421;BME280;17218;54.070;10.012;2022-12-18T09:11:15;102852.41;;;-5.92;100.00
30421;BME280;17218;54.070;10.012;2022-12-18T09:13:44;102866.03;;;-5.81;100.00
30421;BME280;17218;54.070;10.012;2022-12-18T09:16:11;102867.22;;;-5.77;100.00
30421;BME280;17218;54.070;10.012;2022-12-18T09:18:38;102861.22;;;-5.69;100.00
30421;BME280;17218;54.070;10.012;2022-12-18T09:21:09;102866.88;;;-5.63;100.00
30421;BME280;17218;54.070;10.012;2022-12-18T09:23:37;102859.66;;;-5.49;100.00
30421;BME280;17218;54.070;10.012;2022-12-18T09:26:04;102862.00;;;-5.33;100.00
30421;BME280;17218;54.070;10.012;2022-12-18T09:28:30;102866.38;;;-5.21;100.00
30421;BME280;17218;54.070;10.012;2022-12-18T09:30:57;102854.00;;;-5.09;100.00
30421;BME280;17218;54.070;10.012;2022-12-18T09:33:23;102858.59;;;-5.05;100.00
30421;BME280;17218;54.070;10.012;2022-12-18T09:35:50;102852.03;;;-5.03;100.00
30421;BME280;17218;54.070;10.012;2022-12-18T09:38:18;102848.16;;;-4.99;100.00
30421;BME280;17218;54.070;10.012;2022-12-18T09:40:51;102845.81;;;-4.87;100.00
30421;BME280;17218;54.070;10.012;2022-12-18T09:43:22;102857.53;;;-4.79;100.00
30421;BME280;17218;54.070;10.012;2022-12-18T09:45:53;102848.56;;;-4.56;100.00
30421;BME280;17218;54.070;10.012;2022-12-18T09:48:26;102854.72;;;-4.44;100.00
30421;BME280;17218;54.070;10.012;2022-12-18T09:50:57;102851.94;;;-4.27;100.00
30421;BME280;17218;54.070;10.012;2022-12-18T09:53:29;102856.47;;;-4.04;100.00
30421;BME280;17218;54.070;10.012;2022-12-18T09:55:58;102841.13;;;-3.76;100.00
30421;BME280;17218;54.070;10.012;2022-12-18T09:58:31;102846.16;;;-3.46;100.00
30421;BME280;17218;54.070;10.012;2022-12-18T10:00:59;102851.50;;;-3.22;100.00
30421;BME280;17218;54.070;10.012;2022-12-18T10:03:26;102851.88;;;-3.07;100.00
30421;BME280;17218;54.070;10.012;2022-12-18T10:06:00;102839.97;;;-3.08;100.00
30421;BME280;17218;54.070;10.012;2022-12-18T10:08:34;102840.22;;;-3.15;100.00
30421;BME280;17218;54.070;10.012;2022-12-18T10:11:19;102843.91;;;-3.22;100.00
30421;BME280;17218;54.070;10.012;2022-12-18T10:13:51;102849.78;;;-3.53;100.00
30421;BME280;17218;54.070;10.012;2022-12-18T10:16:25;102850.06;;;-3.50;100.00
30421;BME280;17218;54.070;10.012;2022-12-18T10:19:04;102852.44;;;-3.62;100.00
30421;BME280;17218;54.070;10.012;2022-12-18T10:21:40;102863.16;;;-3.75;100.00
30421;BME280;17218;54.070;10.012;2022-12-18T10:24:16;102859.09;;;-3.83;100.00
30421;BME280;17218;54.070;10.012;2022-12-18T10:26:50;102863.91;;;-3.76;100.00
30421;BME280;17218;54.070;10.012;2022-12-18T10:29:19;102860.38;;;-3.67;100.00
30421;BME280;17218;54.070;10.012;2022-12-18T10:31:45;102858.56;;;-3.39;100.00
30421;BME280;17218;54.070;10.012;2022-12-18T10:34:15;102859.88;;;-3.02;100.00
30421;BME280;17218;54.070;10.012;2022-12-18T10:36:42;102861.78;;;-2.68;100.00
30421;BME280;17218;54.070;10.012;2022-12-18T10:39:20;102863.09;;;-2.30;100.00
30421;BME280;17218;54.070;10.012;2022-12-18T10:42:09;102855.66;;;-2.06;100.00
30421;BME280;17218;54.070;10.012;2022-12-18T10:44:36;102864.34;;;-2.25;100.00
30421;BME280;17218;54.070;10.012;2022-12-18T10:47:05;102862.09;;;-2.43;100.00
30421;BME280;17218;54.070;10.012;2022-12-18T10:49:38;102864.44;;;-2.67;100.00
30421;BME280;17218;54.070;10.012;2022-12-18T10:52:15;102856.81;;;-2.67;100.00
30421;BME280;17218;54.070;10.012;2022-12-18T10:54:47;102847.13;;;-2.40;100.00
30421;BME280;17218;54.070;10.012;2022-12-18T10:57:29;102854.41;;;-2.22;100.00
30421;BME280;17218;54.070;10.012;2022-12-18T10:59:58;102843.56;;;-2.09;100.00
30421;BME280;17218;54.070;10.012;2022-12-18T11:02:28;102856.72;;;-1.92;100.00
30421;BME280;17218;54.070;10.012;2022-12-18T11:04:59;102854.09;;;-1.71;100.00
30421;BME280;17218;54.070;10.012;2022-12-18T11:07:46;102854.47;;;-1.10;100.00
30421;BME280;17218;54.070;10.012;2022-12-18T11:10:17;102854.28;;;-0.89;100.00
30421;BME280;17218;54.070;10.012;2022-12-18T11:12:45;102848.06;;;-0.92;100.00
30421;BME280;17218;54.070;10.012;2022-12-18T11:15:19;102844.66;;;-1.27;100.00
30421;BME280;17218;54.070;10.012;2022-12-18T11:17:48;102835.66;;;-1.46;100.00
30421;BME280;17218;54.070;10.012;2022-12-18T11:20:30;102829.25;;;-1.18;100.00
30421;BME280;17218;54.070;10.012;2022-12-18T11:22:59;102834.72;;;-0.90;100.00
30421;BME280;17218;54.070;10.012;2022-12-18T11:25:29;102836.50;;;-0.77;100.00
30421;BME280;17218;54.070;10.012;2022-12-18T11:27:59;102841.72;;;-0.51;100.00
30421;BME280;17218;54.070;10.012;2022-12-18T11:30:29;102839.41;;;-0.36;100.00
30421;BME280;17218;54.070;10.012;2022-12-18T11:33:01;102841.72;;;-0.27;100.00
30421;BME280;17218;54.070;10.012;2022-12-18T11:35:40;102845.47;;;-0.22;100.00
30421;BME280;17218;54.070;10.012;2022-12-18T11:38:28;102832.44;;;-0.27;100.00
30421;BME280;17218;54.070;10.012;2022-12-18T11:41:00;102833.19;;;-0.16;100.00
30421;BME280;17218;54.070;10.012;2022-12-18T11:43:33;102823.75;;;-0.05;100.00
30421;BME280;17218;54.070;10.012;2022-12-18T11:46:04;102818.03;;;0.23;100.00
30421;BME280;17218;54.070;10.012;2022-12-18T11:48:34;102826.38;;;0.72;100.00
30421;BME280;17218;54.070;10.012;2022-12-18T11:51:10;102833.16;;;1.11;100.00
30421;BME280;17218;54.070;10.012;2022-12-18T11:53:37;102832.09;;;1.61;100.00
30421;BME280;17218;54.070;10.012;2022-12-18T11:56:24;102832.44;;;1.95;100.00
30421;BME280;17218;54.070;10.012;2022-12-18T11:59:03;102821.34;;;2.95;100.00
30421;BME280;17218;54.070;10.012;2022-12-18T12:01:46;102808.44;;;3.71;77.50
30421;BME280;17218;54.070;10.012;2022-12-18T12:04:50;102798.03;;;3.85;74.25
30421;BME280;17218;54.070;10.012;2022-12-18T12:07:33;102801.56;;;3.23;77.12
30421;BME280;17218;54.070;10.012;2022-12-18T12:10:07;102791.97;;;2.45;84.07
30421;BME280;17218;54.070;10.012;2022-12-18T12:12:46;102802.97;;;1.86;91.73
30421;BME280;17218;54.070;10.012;2022-12-18T12:15:31;102800.25;;;1.56;100.00
30421;BME280;17218;54.070;10.012;2022-12-18T12:18:07;102806.06;;;1.26;100.00
30421;BME280;17218;54.070;10.012;2022-12-18T12:20:46;102797.91;;;0.66;100.00
30421;BME280;17218;54.070;10.012;2022-12-18T12:23:23;102785.16;;;0.40;100.00
30421;BME280;17218;54.070;10.012;2022-12-18T12:25:57;102779.88;;;-0.01;100.00
30421;BME280;17218;54.070;10.012;2022-12-18T12:28:37;102773.59;;;-0.18;100.00
30421;BME280;17218;54.070;10.012;2022-12-18T12:31:22;102775.09;;;-0.57;100.00
30421;BME280;17218;54.070;10.012;2022-12-18T12:33:57;102769.66;;;-0.86;100.00
30421;BME280;17218;54.070;10.012;2022-12-18T12:36:33;102771.28;;;-1.11;100.00
30421;BME280;17218;54.070;10.012;2022-12-18T12:39:06;102752.81;;;-1.54;100.00
30421;BME280;17218;54.070;10.012;2022-12-18T12:41:35;102752.25;;;-1.85;100.00
30421;BME280;17218;54.070;10.012;2022-12-18T12:44:24;102750.97;;;-2.02;100.00